createdAt,value
2022-08-26T00:01:10.620Z,21.90
2022-08-26T00:03:56.635Z,21.90
2022-08-26T00:06:46.272Z,21.70
2022-08-26T00:09:33.027Z,21.60
2022-08-26T00:12:31.572Z,21.40
2022-08-26T00:15:23.392Z,21.40
2022-08-26T00:18:22.420Z,21.30
2022-08-26T00:21:09.959Z,21.20
2022-08-26T00:23:56.191Z,21.10
2022-08-26T00:26:42.228Z,21.00
2022-08-26T00:29:29.173Z,20.90
2022-08-26T00:32:17.892Z,20.80
2022-08-26T00:35:05.108Z,20.70
2022-08-26T00:37:51.456Z,20.60
2022-08-26T00:40:43.168Z,20.60
2022-08-26T00:43:32.873Z,20.60
2022-08-26T00:46:37.110Z,20.50
2022-08-26T00:49:31.199Z,20.50
2022-08-26T00:52:20.179Z,20.50
2022-08-26T00:55:16.314Z,20.60
2022-08-26T00:58:07.637Z,20.70
2022-08-26T01:00:54.578Z,20.60
2022-08-26T01:03:40.595Z,20.70
2022-08-26T01:06:27.388Z,20.60
2022-08-26T01:09:13.439Z,20.60
2022-08-26T01:12:02.529Z,20.50
2022-08-26T01:14:49.543Z,20.50
2022-08-26T01:17:37.520Z,20.60
2022-08-26T01:20:49.578Z,20.60
2022-08-26T01:23:39.463Z,20.60
2022-08-26T01:26:34.901Z,20.50
2022-08-26T01:29:21.185Z,20.50
2022-08-26T01:32:10.841Z,20.40
2022-08-26T01:34:57.290Z,20.30
2022-08-26T01:37:42.973Z,20.30
2022-08-26T01:40:33.076Z,20.30
2022-08-26T01:43:23.924Z,20.20
2022-08-26T01:46:10.974Z,20.10
2022-08-26T01:49:01.417Z,20.00
2022-08-26T01:51:52.689Z,19.90
2022-08-26T01:54:38.888Z,20.00
2022-08-26T01:57:26.845Z,20.00
2022-08-26T02:00:13.917Z,19.90
2022-08-26T02:03:21.634Z,20.00
2022-08-26T02:06:09.143Z,20.00
2022-08-26T02:08:57.834Z,20.00
2022-08-26T02:11:45.227Z,19.90
2022-08-26T02:14:36.971Z,19.90
2022-08-26T02:17:46.296Z,19.90
2022-08-26T02:20:32.214Z,19.90
2022-08-26T02:23:18.114Z,19.80
2022-08-26T02:26:22.350Z,19.80
2022-08-26T02:29:42.841Z,19.80
2022-08-26T02:32:28.402Z,19.70
2022-08-26T02:35:18.204Z,19.60
2022-08-26T02:38:10.266Z,19.70
2022-08-26T02:40:57.229Z,19.70
2022-08-26T02:43:43.935Z,19.70
2022-08-26T02:46:31.678Z,19.70
2022-08-26T02:49:19.484Z,19.70
2022-08-26T02:52:06.010Z,19.70
2022-08-26T02:54:51.638Z,19.90
2022-08-26T02:57:37.482Z,19.90
2022-08-26T03:00:23.815Z,19.90
2022-08-26T03:03:09.840Z,19.80
2022-08-26T03:05:55.869Z,19.80
2022-08-26T03:08:41.236Z,19.90
2022-08-26T03:11:32.265Z,20.10
2022-08-26T03:14:18.993Z,20.10
2022-08-26T03:17:05.651Z,20.00
2022-08-26T03:19:54.714Z,19.80
2022-08-26T03:22:43.339Z,19.90
2022-08-26T03:25:29.074Z,19.90
2022-08-26T03:28:14.993Z,20.00
2022-08-26T03:31:05.390Z,20.00
2022-08-26T03:33:51.081Z,20.00
2022-08-26T03:36:37.900Z,19.90
2022-08-26T03:39:24.255Z,19.90
2022-08-26T03:42:10.791Z,19.90
2022-08-26T03:44:57.268Z,19.60
2022-08-26T03:47:44.603Z,19.70
2022-08-26T03:50:31.160Z,19.70
2022-08-26T03:53:20.525Z,19.80
2022-08-26T03:56:06.727Z,19.90
2022-08-26T03:58:53.092Z,20.00
2022-08-26T04:01:38.914Z,20.00
2022-08-26T04:04:24.620Z,20.00
2022-08-26T04:07:10.615Z,19.90
2022-08-26T04:09:57.777Z,19.90
2022-08-26T04:12:45.370Z,19.80
2022-08-26T04:15:30.962Z,19.80
2022-08-26T04:18:16.915Z,19.70
2022-08-26T04:21:08.468Z,19.70
2022-08-26T04:23:54.881Z,19.70
2022-08-26T04:26:42.831Z,19.60
2022-08-26T04:29:30.197Z,19.60
2022-08-26T04:32:16.484Z,19.60
2022-08-26T04:35:02.530Z,19.60
2022-08-26T04:37:50.881Z,19.50
2022-08-26T04:40:36.723Z,19.50
2022-08-26T04:43:28.474Z,19.40
2022-08-26T04:46:17.453Z,19.40
2022-08-26T04:49:08.223Z,19.40
2022-08-26T04:51:54.440Z,19.30
2022-08-26T04:54:41.896Z,19.20
2022-08-26T04:57:27.764Z,19.10
2022-08-26T05:00:14.057Z,19.10
2022-08-26T05:03:00.947Z,19.10
2022-08-26T05:05:49.908Z,19.20
2022-08-26T05:08:36.565Z,19.20
2022-08-26T05:11:22.355Z,19.30
2022-08-26T05:14:08.169Z,19.40
2022-08-26T05:16:54.081Z,19.50
2022-08-26T05:19:40.430Z,19.60
2022-08-26T05:22:28.897Z,19.80
2022-08-26T05:25:14.878Z,19.90
2022-08-26T05:28:01.016Z,20.10
2022-08-26T05:30:48.617Z,20.10
2022-08-26T05:33:34.666Z,19.90
2022-08-26T05:36:22.041Z,19.80
2022-08-26T05:39:10.628Z,19.90
2022-08-26T05:41:56.710Z,20.20
2022-08-26T05:44:54.034Z,20.40
2022-08-26T05:47:42.091Z,20.40
2022-08-26T05:50:27.714Z,20.30
2022-08-26T05:53:15.315Z,20.10
2022-08-26T05:56:03.690Z,19.90
2022-08-26T05:58:49.434Z,19.90
2022-08-26T06:01:35.801Z,20.20
2022-08-26T06:04:22.796Z,20.50
2022-08-26T06:07:11.781Z,20.70
2022-08-26T06:10:21.634Z,21.00
2022-08-26T06:13:11.897Z,21.10
2022-08-26T06:15:59.487Z,21.50
2022-08-26T06:18:48.079Z,21.90
2022-08-26T06:21:36.507Z,22.10
2022-08-26T06:24:41.704Z,22.30
2022-08-26T06:27:32.158Z,22.30
2022-08-26T06:30:18.756Z,22.40
2022-08-26T06:33:04.436Z,22.50
2022-08-26T06:35:51.054Z,22.60
2022-08-26T06:38:37.273Z,22.80
2022-08-26T06:41:23.506Z,23.00
2022-08-26T06:44:09.846Z,23.00
2022-08-26T06:46:55.608Z,23.20
2022-08-26T06:49:41.747Z,23.30
2022-08-26T06:52:27.253Z,23.30
2022-08-26T06:55:12.933Z,23.30
2022-08-26T06:57:58.701Z,23.30
2022-08-26T07:00:47.448Z,23.30
2022-08-26T07:03:39.480Z,23.30
2022-08-26T07:06:27.411Z,23.30
2022-08-26T07:09:13.198Z,23.30
2022-08-26T07:11:59.694Z,23.50
2022-08-26T07:14:47.472Z,23.50
2022-08-26T07:17:34.073Z,23.60
2022-08-26T07:20:20.622Z,23.80
2022-08-26T07:23:10.086Z,23.80
2022-08-26T07:25:57.672Z,23.90
2022-08-26T07:28:46.304Z,24.00
2022-08-26T07:31:39.207Z,24.00
2022-08-26T07:34:26.121Z,24.20
2022-08-26T07:37:12.591Z,24.30
2022-08-26T07:39:58.670Z,24.40
2022-08-26T07:42:45.041Z,24.60
2022-08-26T07:45:31.546Z,24.60
2022-08-26T07:48:17.967Z,24.90
2022-08-26T07:51:07.385Z,25.10
2022-08-26T07:53:55.087Z,25.30
2022-08-26T07:56:41.051Z,25.20
2022-08-26T07:59:30.249Z,25.30
2022-08-26T08:02:16.448Z,25.60
2022-08-26T08:05:02.436Z,25.80
2022-08-26T08:07:48.798Z,25.90
2022-08-26T08:10:39.768Z,25.90
2022-08-26T08:13:25.501Z,26.10
2022-08-26T08:16:12.740Z,25.90
2022-08-26T08:18:58.630Z,25.80
2022-08-26T08:21:45.001Z,26.10
2022-08-26T08:24:33.370Z,26.40
2022-08-26T08:27:23.538Z,26.70
2022-08-26T08:30:10.822Z,26.90
2022-08-26T08:32:59.843Z,26.90
2022-08-26T08:35:46.213Z,26.80
2022-08-26T08:38:31.944Z,26.80
2022-08-26T08:41:23.900Z,27.00
2022-08-26T08:44:19.982Z,27.00
2022-08-26T08:47:34.519Z,27.20
2022-08-26T08:50:25.812Z,27.40
2022-08-26T08:53:29.907Z,27.50
2022-08-26T08:56:32.847Z,27.70
2022-08-26T08:59:22.787Z,28.00
2022-08-26T09:02:23.687Z,27.90
2022-08-26T09:05:20.425Z,27.70
2022-08-26T09:08:16.212Z,27.90
2022-08-26T09:11:05.781Z,28.10
2022-08-26T09:13:54.681Z,28.20
2022-08-26T09:17:11.346Z,28.40
2022-08-26T09:20:39.291Z,28.50
2022-08-26T09:23:26.289Z,28.50
2022-08-26T09:26:18.005Z,28.40
2022-08-26T09:32:24.310Z,28.50
2022-08-26T09:35:28.942Z,28.50
2022-08-26T09:38:27.878Z,28.60
2022-08-26T09:41:31.870Z,28.70
2022-08-26T09:44:20.767Z,28.90
2022-08-26T09:47:08.765Z,29.10
2022-08-26T09:50:29.177Z,29.20
2022-08-26T09:53:28.855Z,29.40
2022-08-26T09:56:21.392Z,29.40
2022-08-26T09:59:10.985Z,29.40
2022-08-26T10:02:35.604Z,29.60
2022-08-26T10:05:36.998Z,29.80
2022-08-26T10:08:25.961Z,29.90
2022-08-26T10:11:36.242Z,29.80
2022-08-26T10:14:30.702Z,29.80
2022-08-26T10:17:30.937Z,29.00
2022-08-26T10:20:24.038Z,29.30
2022-08-26T10:23:17.010Z,29.70
2022-08-26T10:26:11.773Z,30.00
2022-08-26T10:29:25.765Z,29.80
2022-08-26T10:32:47.360Z,30.00
2022-08-26T10:35:36.623Z,30.20
2022-08-26T10:38:27.548Z,30.40
2022-08-26T10:41:20.402Z,30.00
2022-08-26T10:44:08.377Z,30.20
2022-08-26T10:46:57.889Z,30.50
2022-08-26T10:49:45.973Z,30.50
2022-08-26T10:53:03.985Z,30.60
2022-08-26T10:55:58.978Z,30.80
2022-08-26T10:58:55.601Z,30.80
2022-08-26T11:02:03.785Z,30.50
2022-08-26T11:05:03.484Z,30.50
2022-08-26T11:07:56.182Z,30.70
2022-08-26T11:10:43.059Z,31.10
2022-08-26T11:13:57.444Z,31.30
2022-08-26T11:16:45.882Z,31.40
2022-08-26T11:19:59.424Z,31.40
2022-08-26T11:22:47.930Z,31.30
2022-08-26T11:25:47.406Z,31.50
2022-08-26T11:28:49.990Z,31.40
2022-08-26T11:31:38.898Z,31.40
2022-08-26T11:34:52.425Z,31.60
2022-08-26T11:37:45.640Z,31.40
2022-08-26T11:40:38.605Z,31.60
2022-08-26T11:43:29.839Z,31.90
2022-08-26T11:46:26.019Z,32.20
2022-08-26T11:49:12.991Z,32.30
2022-08-26T11:52:21.089Z,32.40
2022-08-26T11:55:14.757Z,34.30
2022-08-26T11:58:04.694Z,37.10
2022-08-26T12:01:01.513Z,38.50
2022-08-26T12:03:52.024Z,40.40
2022-08-26T12:06:48.814Z,41.20
2022-08-26T12:09:50.095Z,41.90
2022-08-26T12:12:38.731Z,42.30
2022-08-26T12:15:25.430Z,42.10
2022-08-26T12:18:20.628Z,40.80
2022-08-26T12:21:22.171Z,40.50
2022-08-26T12:24:10.373Z,39.00
2022-08-26T12:27:25.874Z,38.90
2022-08-26T12:30:20.049Z,40.10
2022-08-26T12:33:22.906Z,40.60
2022-08-26T12:36:08.801Z,41.10
2022-08-26T12:38:58.318Z,40.70
2022-08-26T12:41:48.459Z,40.50
2022-08-26T12:44:37.137Z,41.40
2022-08-26T12:47:43.062Z,42.30
2022-08-26T12:50:38.003Z,44.10
2022-08-26T12:53:32.872Z,44.40
2022-08-26T12:56:33.000Z,44.20
2022-08-26T12:59:25.125Z,44.10
2022-08-26T13:02:11.313Z,43.60
2022-08-26T13:05:00.940Z,44.00
2022-08-26T13:08:24.404Z,43.30
2022-08-26T13:11:12.623Z,42.10
2022-08-26T13:14:02.374Z,41.10
2022-08-26T13:16:53.738Z,40.70
2022-08-26T13:19:40.115Z,40.20
2022-08-26T13:22:25.788Z,39.60
2022-08-26T13:25:11.563Z,39.20
2022-08-26T13:27:57.559Z,39.00
2022-08-26T13:30:47.147Z,38.50
2022-08-26T13:33:33.480Z,37.50
2022-08-26T13:36:20.111Z,36.80
2022-08-26T13:39:06.341Z,36.10
2022-08-26T13:41:52.728Z,35.20
2022-08-26T13:44:39.213Z,35.00
2022-08-26T13:47:26.232Z,34.60
2022-08-26T13:50:13.619Z,34.20
2022-08-26T13:53:00.006Z,33.70
2022-08-26T13:55:46.197Z,33.60
2022-08-26T13:58:32.112Z,33.80
2022-08-26T14:01:17.850Z,33.40
2022-08-26T14:04:03.922Z,33.20
2022-08-26T14:06:49.668Z,33.00
2022-08-26T14:09:38.368Z,33.00
2022-08-26T14:12:25.155Z,32.90
2022-08-26T14:19:50.431Z,33.50
2022-08-26T14:22:40.467Z,33.40
2022-08-26T14:25:30.016Z,33.20
2022-08-26T14:28:15.726Z,33.50
2022-08-26T14:31:03.293Z,33.40
2022-08-26T14:33:49.231Z,32.30
2022-08-26T14:36:35.738Z,31.90
2022-08-26T14:39:21.247Z,31.80
2022-08-26T14:42:07.136Z,32.00
2022-08-26T14:44:56.311Z,31.90
2022-08-26T14:47:42.619Z,31.80
2022-08-26T14:50:28.145Z,31.60
2022-08-26T14:53:33.272Z,32.00
2022-08-26T14:56:19.389Z,32.10
2022-08-26T14:59:05.058Z,32.30
2022-08-26T15:01:50.954Z,32.10
2022-08-26T15:04:37.537Z,31.60
2022-08-26T15:07:23.751Z,31.00
2022-08-26T15:10:13.705Z,30.80
2022-08-26T15:12:59.582Z,30.70
2022-08-26T15:15:45.491Z,30.70
2022-08-26T15:18:32.158Z,30.40
2022-08-26T15:21:20.020Z,30.40
2022-08-26T15:24:06.217Z,30.50
2022-08-26T15:26:52.651Z,30.40
2022-08-26T15:29:39.029Z,30.40
2022-08-26T15:32:24.900Z,29.40
2022-08-26T15:35:10.500Z,28.90
2022-08-26T15:37:56.625Z,27.80
2022-08-26T15:40:43.341Z,27.10
2022-08-26T15:43:29.374Z,26.90
2022-08-26T15:46:15.283Z,27.00
2022-08-26T15:49:01.518Z,27.00
2022-08-26T15:51:50.523Z,27.10
2022-08-26T15:54:36.575Z,26.50
2022-08-26T15:57:22.191Z,25.80
2022-08-26T16:00:09.430Z,25.60
2022-08-26T16:02:57.685Z,25.40
2022-08-26T16:05:44.161Z,25.30
2022-08-26T16:08:30.143Z,25.30
2022-08-26T16:11:22.880Z,25.30
2022-08-26T16:14:09.103Z,25.70
2022-08-26T16:16:56.367Z,26.20
2022-08-26T16:19:42.499Z,26.20
2022-08-26T16:22:28.577Z,26.10
2022-08-26T16:25:14.189Z,26.00
2022-08-26T16:27:59.802Z,25.80
2022-08-26T16:30:45.960Z,25.80
2022-08-26T16:33:31.795Z,26.30
2022-08-26T16:36:17.609Z,26.80
2022-08-26T16:39:04.775Z,26.80
2022-08-26T16:41:50.502Z,26.60
2022-08-26T16:44:44.354Z,26.50
2022-08-26T16:47:30.179Z,26.50
2022-08-26T16:50:16.300Z,26.80
2022-08-26T16:53:02.109Z,27.00
2022-08-26T16:55:50.091Z,27.00
2022-08-26T16:58:35.593Z,27.00
2022-08-26T17:01:22.829Z,27.00
2022-08-26T17:04:08.625Z,26.90
2022-08-26T17:06:54.676Z,26.80
2022-08-26T17:09:41.502Z,26.70
2022-08-26T17:12:28.384Z,26.50
2022-08-26T17:15:15.130Z,26.40
2022-08-26T17:18:00.758Z,26.40
2022-08-26T17:20:47.037Z,26.40
2022-08-26T17:23:33.288Z,26.40
2022-08-26T17:26:18.971Z,26.40
2022-08-26T17:29:07.389Z,26.30
2022-08-26T17:31:52.975Z,26.40
2022-08-26T17:34:39.094Z,26.40
2022-08-26T17:37:24.871Z,26.40
2022-08-26T17:40:15.423Z,26.40
2022-08-26T17:43:01.553Z,26.40
2022-08-26T17:45:47.495Z,26.30
2022-08-26T17:48:32.912Z,26.30
2022-08-26T17:51:19.672Z,26.20
2022-08-26T17:54:05.676Z,26.20
2022-08-26T17:56:51.235Z,26.10
2022-08-26T17:59:36.888Z,26.00
2022-08-26T18:02:22.621Z,25.90
2022-08-26T18:05:11.553Z,25.80
2022-08-26T18:07:57.432Z,25.80
2022-08-26T18:10:44.023Z,25.80
2022-08-26T18:13:29.523Z,25.80
2022-08-26T18:16:17.281Z,25.60
2022-08-26T18:19:03.237Z,25.50
2022-08-26T18:21:48.989Z,25.50
2022-08-26T18:24:34.905Z,25.50
2022-08-26T18:27:20.452Z,25.40
2022-08-26T18:30:14.584Z,25.40
2022-08-26T18:33:03.241Z,25.30
2022-08-26T18:35:49.111Z,25.10
2022-08-26T18:38:35.296Z,25.00
2022-08-26T18:41:23.731Z,25.10
2022-08-26T18:44:13.602Z,24.20
2022-08-26T18:46:59.377Z,23.10
2022-08-26T18:49:46.457Z,23.20
2022-08-26T18:52:32.868Z,22.80
2022-08-26T18:55:18.640Z,22.40
2022-08-26T18:58:04.386Z,22.20
2022-08-26T19:00:51.030Z,22.10
2022-08-26T19:03:37.004Z,22.00
2022-08-26T19:06:24.461Z,21.90
2022-08-26T19:09:12.000Z,21.80
2022-08-26T19:12:01.671Z,21.70
2022-08-26T19:14:47.616Z,21.70
2022-08-26T19:17:33.853Z,21.60
2022-08-26T19:20:19.586Z,21.60
2022-08-26T19:23:15.559Z,21.50
2022-08-26T19:26:12.332Z,21.50
2022-08-26T19:28:58.858Z,21.40
2022-08-26T19:31:44.748Z,21.30
2022-08-26T19:34:34.108Z,21.40
2022-08-26T19:37:20.632Z,21.40
2022-08-26T19:40:07.704Z,21.40
2022-08-26T19:42:53.620Z,21.40
2022-08-26T19:45:40.346Z,21.30
2022-08-26T19:48:26.480Z,21.30
2022-08-26T19:51:15.708Z,21.40
2022-08-26T19:54:02.147Z,21.30
2022-08-26T19:56:49.815Z,21.30
2022-08-26T19:59:36.365Z,21.20
2022-08-26T20:02:22.405Z,21.20
2022-08-26T20:05:10.763Z,21.20
2022-08-26T20:07:56.794Z,21.20
2022-08-26T20:10:44.397Z,21.00
2022-08-26T20:13:30.563Z,21.10
2022-08-26T20:16:17.412Z,21.10
2022-08-26T20:19:21.881Z,21.10
2022-08-26T20:22:08.106Z,21.10
2022-08-26T20:24:54.267Z,21.10
2022-08-26T20:27:40.267Z,21.10
2022-08-26T20:30:26.035Z,21.10
2022-08-26T20:33:12.920Z,21.10
2022-08-26T20:35:58.726Z,21.00
2022-08-26T20:38:45.145Z,20.90
2022-08-26T20:41:31.544Z,20.90
2022-08-26T20:44:17.830Z,20.90
2022-08-26T20:47:03.554Z,21.00
2022-08-26T20:49:52.315Z,21.10
2022-08-26T20:52:38.663Z,21.20
2022-08-26T20:55:25.897Z,21.20
2022-08-26T20:58:11.615Z,21.10
2022-08-26T21:00:57.495Z,21.20
2022-08-26T21:03:43.092Z,21.40
2022-08-26T21:06:29.157Z,21.50
2022-08-26T21:09:16.459Z,21.60
2022-08-26T21:12:02.569Z,21.60
2022-08-26T21:14:49.739Z,21.60
2022-08-26T21:17:36.093Z,21.70
2022-08-26T21:20:21.576Z,21.60
2022-08-26T21:23:07.113Z,21.60
2022-08-26T21:25:52.992Z,21.50
2022-08-26T21:28:41.698Z,21.40
2022-08-26T21:31:27.546Z,21.30
2022-08-26T21:34:17.271Z,21.20
2022-08-26T21:37:03.338Z,21.20
2022-08-26T21:39:56.855Z,21.30
2022-08-26T21:42:42.583Z,21.30
2022-08-26T21:45:28.244Z,21.30
2022-08-26T21:48:13.850Z,21.40
2022-08-26T21:50:59.369Z,21.40
2022-08-26T21:53:45.120Z,21.40
2022-08-26T21:56:32.752Z,21.40
2022-08-26T21:59:19.242Z,21.40
2022-08-26T22:02:07.977Z,21.40
2022-08-26T22:04:54.042Z,21.40
2022-08-26T22:07:39.815Z,21.40
2022-08-26T22:10:25.684Z,21.40
2022-08-26T22:13:11.527Z,21.50
2022-08-26T22:16:01.453Z,21.50
2022-08-26T22:18:47.288Z,21.50
2022-08-26T22:21:35.671Z,21.50
2022-08-26T22:24:23.818Z,21.50
2022-08-26T22:27:11.985Z,21.50
2022-08-26T22:29:57.814Z,21.40
2022-08-26T22:32:45.646Z,21.40
2022-08-26T22:35:31.534Z,21.50
2022-08-26T22:38:18.515Z,21.50
2022-08-26T22:41:08.514Z,21.40
2022-08-26T22:43:54.534Z,21.40
2022-08-26T22:46:41.508Z,21.40
2022-08-26T22:49:27.405Z,21.40
2022-08-26T22:52:13.145Z,21.30
2022-08-26T22:54:58.746Z,21.30
2022-08-26T22:57:44.612Z,21.30
2022-08-26T23:00:32.322Z,21.30
2022-08-26T23:03:18.808Z,21.30
2022-08-26T23:06:12.143Z,21.20
2022-08-26T23:08:58.295Z,21.30
2022-08-26T23:11:46.340Z,21.20
2022-08-26T23:14:32.288Z,21.20
2022-08-26T23:17:18.106Z,21.10
2022-08-26T23:20:07.976Z,21.10
2022-08-26T23:22:53.639Z,21.00
2022-08-26T23:25:39.386Z,20.90
2022-08-26T23:28:27.032Z,20.90
2022-08-26T23:31:13.703Z,21.00
2022-08-26T23:34:17.665Z,21.00
2022-08-26T23:37:06.164Z,20.90
2022-08-26T23:39:52.491Z,20.90
2022-08-26T23:42:38.398Z,20.90
2022-08-26T23:45:25.834Z,20.90
2022-08-26T23:48:11.631Z,21.00
2022-08-26T23:51:15.674Z,20.90
2022-08-26T23:54:01.396Z,20.90
2022-08-26T23:56:46.900Z,20.90
2022-08-26T23:59:34.031Z,20.80
